N828WW MYAP-MDAB
Flight info
| Callsign | N828WW |
|---|---|
| Flight time | N/A |
| Altitude | 27000 |
| Route | WRECK DCT DCY |
| Aircraft | B60T/L-SDFGRY/C |
Departure
| Time | N/A |
|---|---|
| Airport | Spring Point Airport (MYAP) |
Arrival
| Time | 2026-04-29 21:19 |
|---|---|
| Airport | Arroyo Barril Airport (MDAB) |
| Time | Latitude | Longitude | Altitude | Speed | Heading |
|---|---|---|---|---|---|
| 2026-04-29 20:14 | 22.22345 | -73.66520 | 20500 ft | 180 kts | 133° |
| 2026-04-29 20:14 | 22.21570 | -73.65453 | 20969 ft | 182 kts | 133° |
| 2026-04-29 20:14 | 22.20787 | -73.64375 | 21422 ft | 183 kts | 134° |
| 2026-04-29 20:15 | 22.19997 | -73.63288 | 21884 ft | 185 kts | 134° |
| 2026-04-29 20:15 | 22.19201 | -73.62193 | 22351 ft | 186 kts | 134° |
| 2026-04-29 20:15 | 22.18399 | -73.61089 | 22817 ft | 188 kts | 135° |
| 2026-04-29 20:15 | 22.17560 | -73.59942 | 22988 ft | 207 kts | 134° |
| 2026-04-29 20:16 | 22.16613 | -73.58653 | 23000 ft | 230 kts | 134° |
| 2026-04-29 20:16 | 22.15584 | -73.57239 | 23002 ft | 248 kts | 133° |
| 2026-04-29 20:16 | 22.14489 | -73.55731 | 22997 ft | 262 kts | 133° |
| 2026-04-29 20:16 | 22.13347 | -73.54158 | 22991 ft | 271 kts | 133° |
| 2026-04-29 20:17 | 22.12170 | -73.52541 | 22986 ft | 277 kts | 133° |
| 2026-04-29 20:17 | 22.10969 | -73.50892 | 22982 ft | 281 kts | 133° |
| 2026-04-29 20:17 | 22.09754 | -73.49223 | 22978 ft | 284 kts | 133° |
| 2026-04-29 20:17 | 22.08529 | -73.47542 | 22980 ft | 286 kts | 133° |
| 2026-04-29 20:18 | 22.07298 | -73.45852 | 22976 ft | 287 kts | 132° |
| 2026-04-29 20:18 | 22.06062 | -73.44157 | 22977 ft | 288 kts | 132° |
| 2026-04-29 20:18 | 22.04823 | -73.42458 | 22980 ft | 288 kts | 132° |
| 2026-04-29 20:18 | 22.03582 | -73.40757 | 22979 ft | 289 kts | 133° |
| 2026-04-29 20:19 | 22.02336 | -73.39059 | 22970 ft | 289 kts | 133° |
| 2026-04-29 20:19 | 22.01113 | -73.37376 | 22975 ft | 289 kts | 132° |
| 2026-04-29 20:19 | 21.99873 | -73.35669 | 22981 ft | 289 kts | 133° |
| 2026-04-29 20:19 | 21.98627 | -73.33968 | 22983 ft | 289 kts | 133° |
| 2026-04-29 20:20 | 21.97382 | -73.32267 | 22982 ft | 289 kts | 133° |
| 2026-04-29 20:20 | 21.96137 | -73.30564 | 22982 ft | 289 kts | 133° |
| 2026-04-29 20:20 | 21.94893 | -73.28859 | 22975 ft | 289 kts | 133° |
| 2026-04-29 20:20 | 21.93647 | -73.27156 | 22976 ft | 289 kts | 133° |
| 2026-04-29 20:21 | 21.92400 | -73.25454 | 22973 ft | 289 kts | 133° |
| 2026-04-29 20:21 | 21.91154 | -73.23752 | 22973 ft | 290 kts | 133° |
| 2026-04-29 20:21 | 21.89907 | -73.22050 | 22961 ft | 290 kts | 134° |
| 2026-04-29 20:21 | 21.88659 | -73.20346 | 22961 ft | 290 kts | 134° |
| 2026-04-29 20:22 | 21.87412 | -73.18643 | 22961 ft | 290 kts | 134° |
| 2026-04-29 20:22 | 21.86165 | -73.16939 | 22961 ft | 290 kts | 134° |
| 2026-04-29 20:22 | 21.84914 | -73.15235 | 22963 ft | 290 kts | 134° |
| 2026-04-29 20:22 | 21.83665 | -73.13535 | 22963 ft | 290 kts | 134° |
| 2026-04-29 20:23 | 21.82417 | -73.11831 | 22961 ft | 290 kts | 134° |
| 2026-04-29 20:23 | 21.81168 | -73.10126 | 22962 ft | 290 kts | 134° |
| 2026-04-29 20:23 | 21.79918 | -73.08421 | 22959 ft | 290 kts | 134° |
| 2026-04-29 20:23 | 21.78667 | -73.06719 | 22960 ft | 290 kts | 134° |
| 2026-04-29 20:24 | 21.77418 | -73.05018 | 22960 ft | 290 kts | 134° |
| 2026-04-29 20:24 | 21.76167 | -73.03315 | 22960 ft | 290 kts | 134° |
| 2026-04-29 20:24 | 21.74933 | -73.01635 | 22960 ft | 290 kts | 134° |
| 2026-04-29 20:24 | 21.73683 | -72.99935 | 22960 ft | 290 kts | 134° |
| 2026-04-29 20:25 | 21.72432 | -72.98234 | 22960 ft | 290 kts | 134° |
| 2026-04-29 20:25 | 21.71181 | -72.96533 | 22960 ft | 290 kts | 134° |
| 2026-04-29 20:25 | 21.69930 | -72.94832 | 22950 ft | 290 kts | 135° |
| 2026-04-29 20:25 | 21.68661 | -72.93112 | 22958 ft | 290 kts | 134° |
| 2026-04-29 20:26 | 21.67428 | -72.91434 | 22959 ft | 290 kts | 134° |
| 2026-04-29 20:26 | 21.66177 | -72.89734 | 22960 ft | 290 kts | 134° |
| 2026-04-29 20:26 | 21.64924 | -72.88034 | 22959 ft | 290 kts | 134° |
| 2026-04-29 20:26 | 21.63671 | -72.86334 | 22959 ft | 290 kts | 134° |
| 2026-04-29 20:27 | 21.62418 | -72.84633 | 22956 ft | 290 kts | 134° |
| 2026-04-29 20:27 | 21.61571 | -72.83485 | 22957 ft | 290 kts | 134° |
| 2026-04-29 20:27 | 21.59910 | -72.81233 | 22956 ft | 290 kts | 134° |
| 2026-04-29 20:27 | 21.58657 | -72.79534 | 22956 ft | 290 kts | 134° |
| 2026-04-29 20:28 | 21.57401 | -72.77833 | 22957 ft | 290 kts | 134° |
| 2026-04-29 20:28 | 21.56147 | -72.76134 | 22957 ft | 290 kts | 134° |
| 2026-04-29 20:28 | 21.54892 | -72.74436 | 22957 ft | 290 kts | 134° |
| 2026-04-29 20:28 | 21.53637 | -72.72735 | 22947 ft | 290 kts | 135° |
| 2026-04-29 20:29 | 21.52383 | -72.71039 | 22953 ft | 290 kts | 135° |
| 2026-04-29 20:29 | 21.51126 | -72.69339 | 22953 ft | 291 kts | 135° |
| 2026-04-29 20:29 | 21.49869 | -72.67640 | 22953 ft | 291 kts | 135° |
| 2026-04-29 20:29 | 21.48611 | -72.65936 | 22953 ft | 291 kts | 135° |
| 2026-04-29 20:30 | 21.47352 | -72.64236 | 22953 ft | 291 kts | 135° |
| 2026-04-29 20:30 | 21.46093 | -72.62535 | 22954 ft | 291 kts | 135° |
| 2026-04-29 20:30 | 21.44834 | -72.60835 | 22954 ft | 291 kts | 135° |
| 2026-04-29 20:30 | 21.43575 | -72.59134 | 22953 ft | 291 kts | 135° |
| 2026-04-29 20:31 | 21.42316 | -72.57436 | 22954 ft | 291 kts | 135° |
| 2026-04-29 20:31 | 21.41056 | -72.55736 | 22954 ft | 291 kts | 135° |
| 2026-04-29 20:31 | 21.39796 | -72.54036 | 22954 ft | 291 kts | 135° |
| 2026-04-29 20:31 | 21.38537 | -72.52337 | 22954 ft | 291 kts | 135° |
| 2026-04-29 20:32 | 21.37277 | -72.50639 | 22954 ft | 291 kts | 135° |
| 2026-04-29 20:32 | 21.36017 | -72.48939 | 22952 ft | 291 kts | 135° |
| 2026-04-29 20:32 | 21.34757 | -72.47242 | 22953 ft | 291 kts | 135° |
| 2026-04-29 20:32 | 21.33922 | -72.46116 | 22953 ft | 291 kts | 135° |
| 2026-04-29 20:33 | 21.32235 | -72.43846 | 22951 ft | 291 kts | 136° |
| 2026-04-29 20:33 | 21.30971 | -72.42147 | 22952 ft | 292 kts | 135° |
| 2026-04-29 20:33 | 21.29704 | -72.40443 | 22948 ft | 293 kts | 136° |
| 2026-04-29 20:33 | 21.28438 | -72.38756 | 22959 ft | 296 kts | 136° |
| 2026-04-29 20:34 | 21.27152 | -72.37024 | 22964 ft | 298 kts | 135° |
| 2026-04-29 20:34 | 21.25861 | -72.35275 | 22967 ft | 300 kts | 135° |
| 2026-04-29 20:34 | 21.24558 | -72.33519 | 22964 ft | 301 kts | 135° |
| 2026-04-29 20:34 | 21.23248 | -72.31762 | 22961 ft | 302 kts | 135° |
| 2026-04-29 20:35 | 21.21938 | -72.30002 | 22964 ft | 303 kts | 135° |
| 2026-04-29 20:35 | 21.20624 | -72.28238 | 22963 ft | 303 kts | 135° |
| 2026-04-29 20:35 | 21.19310 | -72.26473 | 22964 ft | 303 kts | 135° |
| 2026-04-29 20:35 | 21.17994 | -72.24708 | 22952 ft | 303 kts | 135° |
| 2026-04-29 20:36 | 21.16677 | -72.22940 | 22937 ft | 303 kts | 135° |
| 2026-04-29 20:36 | 21.15360 | -72.21172 | 22945 ft | 304 kts | 135° |
| 2026-04-29 20:36 | 21.14040 | -72.19405 | 22945 ft | 304 kts | 135° |
| 2026-04-29 20:36 | 21.12719 | -72.17635 | 22945 ft | 304 kts | 135° |
| 2026-04-29 20:37 | 21.11397 | -72.15864 | 22946 ft | 304 kts | 135° |
| 2026-04-29 20:37 | 21.10076 | -72.14094 | 22946 ft | 304 kts | 135° |
| 2026-04-29 20:37 | 21.08755 | -72.12320 | 22946 ft | 304 kts | 135° |
| 2026-04-29 20:37 | 21.07439 | -72.10546 | 22950 ft | 304 kts | 135° |
| 2026-04-29 20:38 | 21.06113 | -72.08782 | 22955 ft | 304 kts | 135° |
| 2026-04-29 20:38 | 21.04787 | -72.07018 | 22957 ft | 304 kts | 135° |
| 2026-04-29 20:38 | 21.03464 | -72.05248 | 22958 ft | 304 kts | 135° |
| 2026-04-29 20:38 | 21.02141 | -72.03478 | 22958 ft | 304 kts | 135° |
| 2026-04-29 20:39 | 21.00818 | -72.01709 | 22961 ft | 304 kts | 135° |
| 2026-04-29 20:39 | 20.99496 | -71.99943 | 22959 ft | 305 kts | 135° |
| 2026-04-29 20:39 | 20.98168 | -71.98171 | 22956 ft | 305 kts | 135° |
| 2026-04-29 20:39 | 20.96844 | -71.96403 | 22958 ft | 305 kts | 135° |
| 2026-04-29 20:40 | 20.95519 | -71.94634 | 22959 ft | 305 kts | 135° |
| 2026-04-29 20:40 | 20.94195 | -71.92867 | 22953 ft | 305 kts | 135° |
| 2026-04-29 20:40 | 20.92870 | -71.91099 | 22954 ft | 305 kts | 135° |
| 2026-04-29 20:40 | 20.91543 | -71.89331 | 22943 ft | 305 kts | 135° |
| 2026-04-29 20:41 | 20.90217 | -71.87562 | 22946 ft | 305 kts | 135° |
| 2026-04-29 20:41 | 20.88887 | -71.85791 | 22946 ft | 305 kts | 135° |
| 2026-04-29 20:41 | 20.87576 | -71.84042 | 22946 ft | 305 kts | 135° |
| 2026-04-29 20:41 | 20.86246 | -71.82272 | 22946 ft | 306 kts | 135° |
| 2026-04-29 20:42 | 20.84915 | -71.80499 | 22950 ft | 306 kts | 135° |
| 2026-04-29 20:42 | 20.83585 | -71.78730 | 22950 ft | 306 kts | 135° |
| 2026-04-29 20:42 | 20.82252 | -71.76956 | 22950 ft | 306 kts | 135° |
| 2026-04-29 20:42 | 20.80921 | -71.75187 | 22950 ft | 306 kts | 135° |
| 2026-04-29 20:43 | 20.79589 | -71.73414 | 22947 ft | 306 kts | 135° |
| 2026-04-29 20:43 | 20.78257 | -71.71644 | 22937 ft | 306 kts | 135° |
| 2026-04-29 20:43 | 20.76925 | -71.69875 | 22939 ft | 306 kts | 135° |
| 2026-04-29 20:43 | 20.75594 | -71.68105 | 22939 ft | 306 kts | 135° |
| 2026-04-29 20:44 | 20.74262 | -71.66337 | 22939 ft | 306 kts | 135° |
| 2026-04-29 20:44 | 20.72929 | -71.64567 | 22939 ft | 306 kts | 135° |
| 2026-04-29 20:44 | 20.71597 | -71.62799 | 22939 ft | 305 kts | 135° |
| 2026-04-29 20:44 | 20.70261 | -71.61036 | 22942 ft | 305 kts | 135° |
| 2026-04-29 20:45 | 20.68922 | -71.59276 | 22940 ft | 305 kts | 135° |
| 2026-04-29 20:45 | 20.67599 | -71.57505 | 22940 ft | 306 kts | 135° |
| 2026-04-29 20:45 | 20.66269 | -71.55731 | 22942 ft | 306 kts | 135° |
| 2026-04-29 20:45 | 20.64933 | -71.53962 | 22938 ft | 306 kts | 135° |
| 2026-04-29 20:46 | 20.63598 | -71.52196 | 22938 ft | 306 kts | 135° |
| 2026-04-29 20:46 | 20.62264 | -71.50428 | 22938 ft | 306 kts | 135° |
| 2026-04-29 20:46 | 20.60930 | -71.48663 | 22938 ft | 306 kts | 135° |
| 2026-04-29 20:46 | 20.59595 | -71.46894 | 22939 ft | 306 kts | 135° |
| 2026-04-29 20:47 | 20.58266 | -71.45121 | 22933 ft | 306 kts | 134° |
| 2026-04-29 20:47 | 20.56934 | -71.43350 | 22934 ft | 306 kts | 135° |
| 2026-04-29 20:47 | 20.55591 | -71.41593 | 22935 ft | 306 kts | 135° |
| 2026-04-29 20:47 | 20.54703 | -71.40428 | 22935 ft | 306 kts | 135° |
| 2026-04-29 20:48 | 20.52916 | -71.38064 | 22938 ft | 306 kts | 135° |
| 2026-04-29 20:48 | 20.51583 | -71.36302 | 22938 ft | 306 kts | 135° |
| 2026-04-29 20:48 | 20.50245 | -71.34535 | 22938 ft | 306 kts | 135° |
| 2026-04-29 20:48 | 20.48913 | -71.32777 | 22936 ft | 306 kts | 135° |
| 2026-04-29 20:49 | 20.47573 | -71.31009 | 22938 ft | 306 kts | 135° |
| 2026-04-29 20:49 | 20.46239 | -71.29248 | 22938 ft | 306 kts | 135° |
| 2026-04-29 20:49 | 20.44902 | -71.27484 | 22935 ft | 306 kts | 135° |
| 2026-04-29 20:49 | 20.43565 | -71.25721 | 22935 ft | 306 kts | 135° |
| 2026-04-29 20:50 | 20.42228 | -71.23960 | 22936 ft | 306 kts | 135° |
| 2026-04-29 20:50 | 20.40892 | -71.22199 | 22936 ft | 306 kts | 135° |
| 2026-04-29 20:50 | 20.40007 | -71.21032 | 22936 ft | 306 kts | 135° |
| 2026-04-29 20:50 | 20.38670 | -71.19272 | 22936 ft | 306 kts | 135° |
| 2026-04-29 20:51 | 20.37332 | -71.17510 | 22933 ft | 306 kts | 135° |
| 2026-04-29 20:51 | 20.35995 | -71.15749 | 22932 ft | 306 kts | 135° |
| 2026-04-29 20:51 | 20.34658 | -71.13991 | 22930 ft | 306 kts | 135° |
| 2026-04-29 20:51 | 20.33320 | -71.12230 | 22930 ft | 306 kts | 135° |
| 2026-04-29 20:52 | 20.31980 | -71.10468 | 22930 ft | 306 kts | 135° |
| 2026-04-29 20:52 | 20.30643 | -71.08709 | 22930 ft | 306 kts | 135° |
| 2026-04-29 20:52 | 20.29304 | -71.06950 | 22930 ft | 306 kts | 135° |
| 2026-04-29 20:52 | 20.27965 | -71.05191 | 22928 ft | 306 kts | 135° |
| 2026-04-29 20:53 | 20.26620 | -71.03437 | 22938 ft | 305 kts | 135° |
| 2026-04-29 20:53 | 20.25289 | -71.01674 | 22942 ft | 306 kts | 135° |
| 2026-04-29 20:53 | 20.23953 | -70.99913 | 22945 ft | 305 kts | 135° |
| 2026-04-29 20:53 | 20.22610 | -70.98159 | 22946 ft | 306 kts | 135° |
| 2026-04-29 20:54 | 20.19930 | -70.94645 | 22945 ft | 306 kts | 135° |
| 2026-04-29 20:54 | 20.18589 | -70.92886 | 22943 ft | 306 kts | 135° |
| 2026-04-29 20:54 | 20.17248 | -70.91128 | 22943 ft | 306 kts | 135° |
| 2026-04-29 20:55 | 20.15925 | -70.89395 | 22943 ft | 306 kts | 135° |
| 2026-04-29 20:55 | 20.14583 | -70.87636 | 22936 ft | 306 kts | 135° |
| 2026-04-29 20:55 | 20.13240 | -70.85878 | 22936 ft | 306 kts | 135° |
| 2026-04-29 20:55 | 20.11898 | -70.84120 | 22936 ft | 306 kts | 135° |
| 2026-04-29 20:56 | 20.10553 | -70.82360 | 22933 ft | 306 kts | 135° |
| 2026-04-29 20:56 | 20.09204 | -70.80605 | 22922 ft | 306 kts | 135° |
| 2026-04-29 20:56 | 20.07863 | -70.78849 | 22936 ft | 306 kts | 135° |
| 2026-04-29 20:56 | 20.06518 | -70.77087 | 22940 ft | 306 kts | 135° |
| 2026-04-29 20:57 | 20.05174 | -70.75334 | 22930 ft | 306 kts | 135° |
| 2026-04-29 20:57 | 20.03834 | -70.73584 | 22950 ft | 305 kts | 135° |
| 2026-04-29 20:57 | 20.02495 | -70.71827 | 22931 ft | 305 kts | 135° |
| 2026-04-29 20:57 | 20.01157 | -70.70076 | 22931 ft | 305 kts | 135° |
| 2026-04-29 20:58 | 19.99817 | -70.68327 | 22939 ft | 305 kts | 135° |
| 2026-04-29 20:58 | 19.98473 | -70.66576 | 22931 ft | 305 kts | 135° |
| 2026-04-29 20:58 | 19.97130 | -70.64822 | 22930 ft | 305 kts | 135° |
| 2026-04-29 20:58 | 19.95790 | -70.63073 | 22934 ft | 305 kts | 135° |
| 2026-04-29 20:59 | 19.94448 | -70.61324 | 22936 ft | 305 kts | 135° |
| 2026-04-29 20:59 | 19.93105 | -70.59574 | 22925 ft | 305 kts | 135° |
| 2026-04-29 20:59 | 19.91763 | -70.57823 | 22923 ft | 306 kts | 135° |
| 2026-04-29 20:59 | 19.90419 | -70.56073 | 22921 ft | 306 kts | 135° |
| 2026-04-29 21:00 | 19.89076 | -70.54324 | 22918 ft | 306 kts | 135° |
| 2026-04-29 21:00 | 19.87724 | -70.52569 | 22705 ft | 311 kts | 134° |
| 2026-04-29 21:00 | 19.86356 | -70.50785 | 22297 ft | 311 kts | 134° |
| 2026-04-29 21:00 | 19.85001 | -70.48993 | 21909 ft | 310 kts | 134° |
| 2026-04-29 21:01 | 19.83637 | -70.47227 | 21558 ft | 308 kts | 134° |
| 2026-04-29 21:01 | 19.82275 | -70.45477 | 21200 ft | 307 kts | 134° |
| 2026-04-29 21:01 | 19.80925 | -70.43726 | 20846 ft | 306 kts | 133° |
| 2026-04-29 21:01 | 19.79601 | -70.42001 | 20492 ft | 305 kts | 133° |
| 2026-04-29 21:02 | 19.78261 | -70.40260 | 20140 ft | 304 kts | 133° |
| 2026-04-29 21:02 | 19.76925 | -70.38525 | 19791 ft | 303 kts | 133° |
| 2026-04-29 21:02 | 19.75595 | -70.36797 | 19451 ft | 302 kts | 133° |
| 2026-04-29 21:02 | 19.74266 | -70.35072 | 19105 ft | 301 kts | 133° |
| 2026-04-29 21:03 | 19.72942 | -70.33356 | 18766 ft | 300 kts | 133° |
| 2026-04-29 21:03 | 19.71626 | -70.31647 | 18434 ft | 298 kts | 132° |
| 2026-04-29 21:03 | 19.70315 | -70.29945 | 18092 ft | 297 kts | 132° |
| 2026-04-29 21:03 | 19.69009 | -70.28252 | 17701 ft | 296 kts | 132° |
| 2026-04-29 21:04 | 19.67705 | -70.26564 | 17313 ft | 295 kts | 132° |
| 2026-04-29 21:04 | 19.66410 | -70.24884 | 16938 ft | 293 kts | 132° |
| 2026-04-29 21:04 | 19.65121 | -70.23214 | 16567 ft | 292 kts | 132° |
| 2026-04-29 21:04 | 19.63835 | -70.21548 | 16200 ft | 291 kts | 131° |
| 2026-04-29 21:05 | 19.62555 | -70.19890 | 15843 ft | 290 kts | 132° |
| 2026-04-29 21:05 | 19.61276 | -70.18236 | 15484 ft | 290 kts | 131° |
| 2026-04-29 21:05 | 19.60001 | -70.16585 | 15129 ft | 289 kts | 131° |
| 2026-04-29 21:05 | 19.58729 | -70.14938 | 14780 ft | 289 kts | 131° |
| 2026-04-29 21:06 | 19.57457 | -70.13296 | 14436 ft | 288 kts | 131° |
| 2026-04-29 21:06 | 19.56191 | -70.11657 | 14094 ft | 287 kts | 131° |
| 2026-04-29 21:06 | 19.54929 | -70.10024 | 13725 ft | 287 kts | 131° |
| 2026-04-29 21:06 | 19.53660 | -70.08386 | 13255 ft | 288 kts | 132° |
| 2026-04-29 21:07 | 19.52385 | -70.06749 | 12835 ft | 286 kts | 131° |
| 2026-04-29 21:07 | 19.51146 | -70.05139 | 12427 ft | 278 kts | 131° |
| 2026-04-29 21:07 | 19.49929 | -70.03563 | 12014 ft | 274 kts | 131° |
| 2026-04-29 21:07 | 19.48723 | -70.02006 | 11590 ft | 273 kts | 131° |
| 2026-04-29 21:08 | 19.47522 | -70.00458 | 11193 ft | 271 kts | 131° |
| 2026-04-29 21:08 | 19.46326 | -69.98914 | 10789 ft | 271 kts | 131° |
| 2026-04-29 21:08 | 19.45131 | -69.97374 | 10387 ft | 270 kts | 131° |
| 2026-04-29 21:08 | 19.43942 | -69.95842 | 9994 ft | 269 kts | 131° |
| 2026-04-29 21:09 | 19.42756 | -69.94310 | 9575 ft | 269 kts | 131° |
| 2026-04-29 21:09 | 19.41568 | -69.92778 | 9150 ft | 269 kts | 131° |
| 2026-04-29 21:09 | 19.40385 | -69.91256 | 8727 ft | 266 kts | 130° |
| 2026-04-29 21:09 | 19.39215 | -69.89749 | 8309 ft | 264 kts | 131° |
| 2026-04-29 21:10 | 19.38055 | -69.88252 | 7896 ft | 261 kts | 130° |
| 2026-04-29 21:10 | 19.36904 | -69.86778 | 7487 ft | 258 kts | 130° |
| 2026-04-29 21:10 | 19.35773 | -69.85313 | 7083 ft | 255 kts | 130° |
| 2026-04-29 21:10 | 19.34652 | -69.83868 | 6673 ft | 253 kts | 130° |
| 2026-04-29 21:11 | 19.33540 | -69.82438 | 6275 ft | 250 kts | 130° |
| 2026-04-29 21:11 | 19.32444 | -69.81026 | 5858 ft | 247 kts | 129° |
| 2026-04-29 21:11 | 19.31352 | -69.79617 | 5446 ft | 248 kts | 130° |
| 2026-04-29 21:11 | 19.30257 | -69.78213 | 5040 ft | 247 kts | 129° |
| 2026-04-29 21:12 | 19.29162 | -69.76813 | 4625 ft | 246 kts | 129° |
| 2026-04-29 21:12 | 19.28077 | -69.75422 | 4210 ft | 244 kts | 128° |
| 2026-04-29 21:12 | 19.27230 | -69.73889 | 3773 ft | 242 kts | 109° |
| 2026-04-29 21:12 | 19.26889 | -69.72181 | 3374 ft | 221 kts | 94° |
| 2026-04-29 21:13 | 19.26794 | -69.70738 | 2927 ft | 181 kts | 101° |
| 2026-04-29 21:13 | 19.26492 | -69.69516 | 2482 ft | 166 kts | 104° |
| 2026-04-29 21:13 | 19.26094 | -69.68395 | 2324 ft | 159 kts | 120° |
| 2026-04-29 21:13 | 19.25457 | -69.67481 | 2348 ft | 152 kts | 130° |
| 2026-04-29 21:14 | 19.24789 | -69.66623 | 2212 ft | 148 kts | 127° |
| 2026-04-29 21:14 | 19.24238 | -69.65756 | 2093 ft | 141 kts | 123° |
| 2026-04-29 21:14 | 19.23711 | -69.64932 | 2153 ft | 126 kts | 117° |
| 2026-04-29 21:14 | 19.23338 | -69.64101 | 2084 ft | 133 kts | 108° |
| 2026-04-29 21:15 | 19.23079 | -69.63146 | 1834 ft | 136 kts | 102° |
| 2026-04-29 21:15 | 19.22814 | -69.62169 | 1491 ft | 137 kts | 103° |
| 2026-04-29 21:15 | 19.22509 | -69.61218 | 1247 ft | 137 kts | 108° |
| 2026-04-29 21:15 | 19.22168 | -69.60267 | 988 ft | 143 kts | 109° |
| 2026-04-29 21:16 | 19.21849 | -69.59279 | 834 ft | 139 kts | 100° |
| 2026-04-29 21:16 | 19.21666 | -69.58244 | 1002 ft | 152 kts | 98° |
| 2026-04-29 21:16 | 19.21522 | -69.57084 | 1346 ft | 163 kts | 97° |
| 2026-04-29 21:16 | 19.21389 | -69.55850 | 1577 ft | 176 kts | 91° |
| 2026-04-29 21:17 | 19.21336 | -69.54516 | 1588 ft | 185 kts | 92° |
| 2026-04-29 21:17 | 19.21234 | -69.53129 | 1555 ft | 188 kts | 93° |
| 2026-04-29 21:17 | 19.21103 | -69.51738 | 1535 ft | 191 kts | 96° |
| 2026-04-29 21:17 | 19.20906 | -69.50375 | 1531 ft | 178 kts | 99° |
| 2026-04-29 21:18 | 19.20694 | -69.49062 | 1292 ft | 185 kts | 95° |
| 2026-04-29 21:18 | 19.20514 | -69.47789 | 933 ft | 171 kts | 96° |
| 2026-04-29 21:18 | 19.20374 | -69.46614 | 635 ft | 153 kts | 93° |
| 2026-04-29 21:18 | 19.20252 | -69.45539 | 457 ft | 146 kts | 94° |
| 2026-04-29 21:19 | 19.20118 | -69.44639 | 292 ft | 100 kts | 98° |
| 2026-04-29 21:19 | 19.19997 | -69.43856 | 170 ft | 111 kts | 94° |
| 2026-04-29 21:19 | 19.19879 | -69.43166 | 101 ft | 66 kts | 101° |
| 2026-04-29 21:19 | 19.19860 | -69.43043 | 96 ft | 0 kts | 23° |
| 2026-04-29 21:20 | 19.19882 | -69.43152 | 101 ft | 26 kts | 280° |
| 2026-04-29 21:20 | 19.19894 | -69.43241 | 104 ft | 6 kts | 278° |
| 2026-04-29 21:20 | 19.19961 | -69.43287 | 106 ft | 26 kts | 8° |
| 2026-04-29 21:20 | 19.20046 | -69.43299 | 105 ft | 6 kts | 302° |
| 2026-04-29 21:21 | 19.20055 | -69.43322 | 105 ft | 0 kts | 270° |